sensor_id;sensor_type;location;lat;lon;timestamp;P1;durP1;ratioP1;P2;durP2;ratioP2
70312;SDS011;57723;51.698;5.344;2023-06-14T00:00:30;4.55;;;3.30;;
70312;SDS011;57723;51.698;5.344;2023-06-14T00:02:56;5.37;;;2.60;;
70312;SDS011;57723;51.698;5.344;2023-06-14T00:05:22;4.22;;;2.70;;
70312;SDS011;57723;51.698;5.344;2023-06-14T00:07:48;7.45;;;3.05;;
70312;SDS011;57723;51.698;5.344;2023-06-14T00:10:14;4.20;;;2.70;;
70312;SDS011;57723;51.698;5.344;2023-06-14T00:12:40;5.22;;;2.90;;
70312;SDS011;57723;51.698;5.344;2023-06-14T00:15:07;4.40;;;2.83;;
70312;SDS011;57723;51.698;5.344;2023-06-14T00:17:34;6.82;;;2.70;;
70312;SDS011;57723;51.698;5.344;2023-06-14T00:20:02;5.40;;;2.65;;
70312;SDS011;57723;51.698;5.344;2023-06-14T00:22:28;6.45;;;2.80;;
70312;SDS011;57723;51.698;5.344;2023-06-14T00:24:54;6.23;;;2.83;;
70312;SDS011;57723;51.698;5.344;2023-06-14T00:27:19;4.50;;;2.70;;
70312;SDS011;57723;51.698;5.344;2023-06-14T00:29:45;6.45;;;2.80;;
70312;SDS011;57723;51.698;5.344;2023-06-14T00:32:10;6.93;;;2.67;;
70312;SDS011;57723;51.698;5.344;2023-06-14T00:34:35;4.90;;;2.50;;
70312;SDS011;57723;51.698;5.344;2023-06-14T00:37:01;4.03;;;2.67;;
70312;SDS011;57723;51.698;5.344;2023-06-14T00:39:26;7.17;;;2.60;;
70312;SDS011;57723;51.698;5.344;2023-06-14T00:41:52;4.75;;;2.38;;
70312;SDS011;57723;51.698;5.344;2023-06-14T00:44:17;5.83;;;2.80;;
70312;SDS011;57723;51.698;5.344;2023-06-14T00:46:43;3.73;;;2.30;;
70312;SDS011;57723;51.698;5.344;2023-06-14T00:49:08;4.38;;;2.58;;
70312;SDS011;57723;51.698;5.344;2023-06-14T00:51:34;4.07;;;2.50;;
70312;SDS011;57723;51.698;5.344;2023-06-14T00:54:00;6.97;;;2.50;;
70312;SDS011;57723;51.698;5.344;2023-06-14T00:56:26;4.80;;;2.37;;
70312;SDS011;57723;51.698;5.344;2023-06-14T00:58:52;6.40;;;2.80;;
70312;SDS011;57723;51.698;5.344;2023-06-14T01:01:18;4.40;;;2.43;;
70312;SDS011;57723;51.698;5.344;2023-06-14T01:03:43;5.72;;;2.47;;
70312;SDS011;57723;51.698;5.344;2023-06-14T01:09:03;4.35;;;2.40;;
70312;SDS011;57723;51.698;5.344;2023-06-14T01:11:32;4.45;;;2.80;;
70312;SDS011;57723;51.698;5.344;2023-06-14T01:13:57;4.38;;;2.40;;
70312;SDS011;57723;51.698;5.344;2023-06-14T01:16:24;4.75;;;2.42;;
70312;SDS011;57723;51.698;5.344;2023-06-14T01:18:52;5.03;;;2.50;;
70312;SDS011;57723;51.698;5.344;2023-06-14T01:21:23;4.32;;;2.45;;
70312;SDS011;57723;51.698;5.344;2023-06-14T01:23:49;3.90;;;2.40;;
70312;SDS011;57723;51.698;5.344;2023-06-14T01:26:18;4.33;;;2.40;;
70312;SDS011;57723;51.698;5.344;2023-06-14T01:28:45;4.22;;;2.20;;
70312;SDS011;57723;51.698;5.344;2023-06-14T01:31:16;3.70;;;2.20;;
70312;SDS011;57723;51.698;5.344;2023-06-14T01:33:42;4.88;;;2.40;;
70312;SDS011;57723;51.698;5.344;2023-06-14T01:36:08;4.93;;;2.50;;
70312;SDS011;57723;51.698;5.344;2023-06-14T01:38:34;5.07;;;2.40;;
70312;SDS011;57723;51.698;5.344;2023-06-14T01:41:00;4.97;;;2.75;;
70312;SDS011;57723;51.698;5.344;2023-06-14T01:43:26;3.90;;;2.35;;
70312;SDS011;57723;51.698;5.344;2023-06-14T01:45:54;7.00;;;3.03;;
70312;SDS011;57723;51.698;5.344;2023-06-14T01:48:21;6.75;;;2.60;;
70312;SDS011;57723;51.698;5.344;2023-06-14T01:50:47;4.57;;;2.47;;
70312;SDS011;57723;51.698;5.344;2023-06-14T01:53:13;4.32;;;2.30;;
70312;SDS011;57723;51.698;5.344;2023-06-14T01:55:38;6.27;;;2.50;;
70312;SDS011;57723;51.698;5.344;2023-06-14T01:58:08;4.22;;;2.28;;
70312;SDS011;57723;51.698;5.344;2023-06-14T02:00:33;4.30;;;2.37;;
70312;SDS011;57723;51.698;5.344;2023-06-14T02:02:58;4.60;;;2.30;;
70312;SDS011;57723;51.698;5.344;2023-06-14T02:05:24;3.30;;;2.23;;
70312;SDS011;57723;51.698;5.344;2023-06-14T02:07:49;3.87;;;2.20;;
70312;SDS011;57723;51.698;5.344;2023-06-14T02:10:15;3.97;;;2.30;;
70312;SDS011;57723;51.698;5.344;2023-06-14T02:12:42;5.23;;;2.43;;
70312;SDS011;57723;51.698;5.344;2023-06-14T02:15:08;4.78;;;2.30;;
70312;SDS011;57723;51.698;5.344;2023-06-14T02:17:34;4.55;;;2.50;;
70312;SDS011;57723;51.698;5.344;2023-06-14T02:20:00;3.47;;;2.10;;
70312;SDS011;57723;51.698;5.344;2023-06-14T02:22:25;4.30;;;2.22;;
70312;SDS011;57723;51.698;5.344;2023-06-14T02:24:50;3.67;;;1.90;;
70312;SDS011;57723;51.698;5.344;2023-06-14T02:27:16;3.33;;;2.17;;
70312;SDS011;57723;51.698;5.344;2023-06-14T02:29:42;3.87;;;2.27;;
70312;SDS011;57723;51.698;5.344;2023-06-14T02:32:08;4.77;;;2.30;;
70312;SDS011;57723;51.698;5.344;2023-06-14T02:34:34;6.57;;;2.50;;
70312;SDS011;57723;51.698;5.344;2023-06-14T02:36:59;3.37;;;2.17;;
70312;SDS011;57723;51.698;5.344;2023-06-14T02:39:25;6.38;;;2.13;;
70312;SDS011;57723;51.698;5.344;2023-06-14T02:41:50;3.77;;;2.17;;
70312;SDS011;57723;51.698;5.344;2023-06-14T02:44:18;4.60;;;2.23;;
70312;SDS011;57723;51.698;5.344;2023-06-14T02:46:44;3.85;;;2.10;;
70312;SDS011;57723;51.698;5.344;2023-06-14T02:49:10;4.43;;;2.30;;
70312;SDS011;57723;51.698;5.344;2023-06-14T02:51:36;4.80;;;2.03;;
70312;SDS011;57723;51.698;5.344;2023-06-14T02:54:01;3.40;;;2.17;;
70312;SDS011;57723;51.698;5.344;2023-06-14T02:56:26;4.30;;;2.30;;
70312;SDS011;57723;51.698;5.344;2023-06-14T02:58:53;4.53;;;2.40;;
70312;SDS011;57723;51.698;5.344;2023-06-14T03:01:18;4.13;;;1.80;;
70312;SDS011;57723;51.698;5.344;2023-06-14T03:03:44;5.20;;;2.30;;
70312;SDS011;57723;51.698;5.344;2023-06-14T03:06:09;4.70;;;2.23;;
70312;SDS011;57723;51.698;5.344;2023-06-14T03:08:37;3.72;;;2.15;;
70312;SDS011;57723;51.698;5.344;2023-06-14T03:11:06;6.10;;;2.20;;
70312;SDS011;57723;51.698;5.344;2023-06-14T03:13:32;4.30;;;2.17;;
70312;SDS011;57723;51.698;5.344;2023-06-14T03:15:58;5.63;;;2.13;;
70312;SDS011;57723;51.698;5.344;2023-06-14T03:18:23;3.90;;;1.90;;
70312;SDS011;57723;51.698;5.344;2023-06-14T03:20:49;4.40;;;2.57;;
70312;SDS011;57723;51.698;5.344;2023-06-14T03:23:16;4.90;;;2.73;;
70312;SDS011;57723;51.698;5.344;2023-06-14T03:25:42;4.63;;;2.25;;
70312;SDS011;57723;51.698;5.344;2023-06-14T03:28:12;4.13;;;2.20;;
70312;SDS011;57723;51.698;5.344;2023-06-14T03:30:37;3.27;;;2.00;;
70312;SDS011;57723;51.698;5.344;2023-06-14T03:33:03;3.10;;;1.90;;
70312;SDS011;57723;51.698;5.344;2023-06-14T03:35:29;2.92;;;2.00;;
70312;SDS011;57723;51.698;5.344;2023-06-14T03:37:55;5.87;;;1.90;;
70312;SDS011;57723;51.698;5.344;2023-06-14T03:40:20;5.00;;;2.27;;
70312;SDS011;57723;51.698;5.344;2023-06-14T03:42:46;6.68;;;2.20;;
70312;SDS011;57723;51.698;5.344;2023-06-14T03:45:12;3.67;;;2.00;;
70312;SDS011;57723;51.698;5.344;2023-06-14T03:47:37;4.97;;;2.27;;
70312;SDS011;57723;51.698;5.344;2023-06-14T03:50:02;3.70;;;2.00;;
70312;SDS011;57723;51.698;5.344;2023-06-14T03:52:28;4.00;;;2.03;;
70312;SDS011;57723;51.698;5.344;2023-06-14T03:54:54;3.60;;;2.15;;
70312;SDS011;57723;51.698;5.344;2023-06-14T03:57:23;6.63;;;2.25;;
70312;SDS011;57723;51.698;5.344;2023-06-14T03:59:49;3.10;;;1.77;;
70312;SDS011;57723;51.698;5.344;2023-06-14T04:02:14;3.40;;;2.00;;
70312;SDS011;57723;51.698;5.344;2023-06-14T04:04:41;3.88;;;2.25;;
70312;SDS011;57723;51.698;5.344;2023-06-14T04:07:09;4.60;;;1.95;;
70312;SDS011;57723;51.698;5.344;2023-06-14T04:09:34;4.30;;;1.80;;
70312;SDS011;57723;51.698;5.344;2023-06-14T04:11:59;2.83;;;1.87;;
70312;SDS011;57723;51.698;5.344;2023-06-14T04:14:25;3.43;;;2.10;;
70312;SDS011;57723;51.698;5.344;2023-06-14T04:16:50;4.83;;;2.10;;
70312;SDS011;57723;51.698;5.344;2023-06-14T04:19:16;4.23;;;2.10;;
70312;SDS011;57723;51.698;5.344;2023-06-14T04:21:41;3.17;;;2.00;;
70312;SDS011;57723;51.698;5.344;2023-06-14T04:24:07;3.70;;;2.28;;
70312;SDS011;57723;51.698;5.344;2023-06-14T04:26:41;4.50;;;2.33;;
70312;SDS011;57723;51.698;5.344;2023-06-14T04:29:09;3.80;;;2.30;;
70312;SDS011;57723;51.698;5.344;2023-06-14T04:31:35;4.25;;;2.50;;
70312;SDS011;57723;51.698;5.344;2023-06-14T04:34:02;7.13;;;2.00;;
70312;SDS011;57723;51.698;5.344;2023-06-14T04:36:34;6.53;;;2.00;;
70312;SDS011;57723;51.698;5.344;2023-06-14T04:39:00;4.70;;;2.42;;
70312;SDS011;57723;51.698;5.344;2023-06-14T04:41:28;3.28;;;2.10;;
70312;SDS011;57723;51.698;5.344;2023-06-14T04:43:56;3.78;;;1.90;;
70312;SDS011;57723;51.698;5.344;2023-06-14T04:46:22;5.00;;;2.20;;
70312;SDS011;57723;51.698;5.344;2023-06-14T04:48:48;9.02;;;2.20;;
70312;SDS011;57723;51.698;5.344;2023-06-14T04:51:15;7.22;;;1.90;;
70312;SDS011;57723;51.698;5.344;2023-06-14T04:53:41;3.17;;;2.00;;
70312;SDS011;57723;51.698;5.344;2023-06-14T04:56:07;6.40;;;2.03;;
70312;SDS011;57723;51.698;5.344;2023-06-14T04:58:32;3.63;;;2.23;;
70312;SDS011;57723;51.698;5.344;2023-06-14T05:00:58;6.43;;;2.30;;
70312;SDS011;57723;51.698;5.344;2023-06-14T05:03:24;5.88;;;1.90;;
70312;SDS011;57723;51.698;5.344;2023-06-14T05:05:52;4.35;;;2.10;;
70312;SDS011;57723;51.698;5.344;2023-06-14T05:08:20;5.40;;;3.20;;
70312;SDS011;57723;51.698;5.344;2023-06-14T05:10:48;6.20;;;5.57;;
70312;SDS011;57723;51.698;5.344;2023-06-14T05:13:14;14.68;;;13.38;;
70312;SDS011;57723;51.698;5.344;2023-06-14T05:15:39;27.27;;;25.47;;
70312;SDS011;57723;51.698;5.344;2023-06-14T05:18:05;35.40;;;33.27;;
70312;SDS011;57723;51.698;5.344;2023-06-14T05:20:33;45.10;;;42.27;;
70312;SDS011;57723;51.698;5.344;2023-06-14T05:22:59;50.60;;;47.60;;
70312;SDS011;57723;51.698;5.344;2023-06-14T05:25:26;4.70;;;4.15;;
70312;SDS011;57723;51.698;5.344;2023-06-14T05:27:53;4.80;;;1.88;;
70312;SDS011;57723;51.698;5.344;2023-06-14T05:30:18;4.30;;;2.00;;
70312;SDS011;57723;51.698;5.344;2023-06-14T05:32:44;6.20;;;2.13;;
70312;SDS011;57723;51.698;5.344;2023-06-14T05:35:10;4.35;;;2.13;;
70312;SDS011;57723;51.698;5.344;2023-06-14T05:37:35;5.65;;;2.10;;
70312;SDS011;57723;51.698;5.344;2023-06-14T05:40:01;3.57;;;2.00;;
70312;SDS011;57723;51.698;5.344;2023-06-14T05:42:29;4.80;;;2.20;;
70312;SDS011;57723;51.698;5.344;2023-06-14T05:44:54;7.13;;;2.27;;
70312;SDS011;57723;51.698;5.344;2023-06-14T05:47:20;5.23;;;2.47;;
70312;SDS011;57723;51.698;5.344;2023-06-14T05:49:46;5.00;;;2.13;;
70312;SDS011;57723;51.698;5.344;2023-06-14T05:52:12;5.60;;;2.13;;
70312;SDS011;57723;51.698;5.344;2023-06-14T05:54:38;8.35;;;2.40;;
70312;SDS011;57723;51.698;5.344;2023-06-14T05:57:03;9.50;;;2.20;;
70312;SDS011;57723;51.698;5.344;2023-06-14T05:59:31;5.15;;;2.30;;
70312;SDS011;57723;51.698;5.344;2023-06-14T06:01:56;4.17;;;2.00;;
70312;SDS011;57723;51.698;5.344;2023-06-14T06:04:22;5.07;;;2.03;;
70312;SDS011;57723;51.698;5.344;2023-06-14T06:06:48;4.18;;;2.08;;
70312;SDS011;57723;51.698;5.344;2023-06-14T06:09:13;6.23;;;2.10;;
70312;SDS011;57723;51.698;5.344;2023-06-14T06:11:41;5.65;;;2.33;;
70312;SDS011;57723;51.698;5.344;2023-06-14T06:14:07;5.93;;;2.20;;
70312;SDS011;57723;51.698;5.344;2023-06-14T06:16:32;7.70;;;2.23;;
70312;SDS011;57723;51.698;5.344;2023-06-14T06:18:58;6.43;;;2.00;;
70312;SDS011;57723;51.698;5.344;2023-06-14T06:21:24;3.80;;;2.10;;
70312;SDS011;57723;51.698;5.344;2023-06-14T06:23:49;3.37;;;2.00;;
70312;SDS011;57723;51.698;5.344;2023-06-14T06:26:15;5.57;;;2.63;;
70312;SDS011;57723;51.698;5.344;2023-06-14T06:28:40;12.53;;;2.50;;
70312;SDS011;57723;51.698;5.344;2023-06-14T06:31:05;8.13;;;2.10;;
70312;SDS011;57723;51.698;5.344;2023-06-14T06:33:34;7.33;;;2.40;;
70312;SDS011;57723;51.698;5.344;2023-06-14T06:36:04;5.53;;;2.40;;
70312;SDS011;57723;51.698;5.344;2023-06-14T06:38:30;34.63;;;3.85;;
70312;SDS011;57723;51.698;5.344;2023-06-14T06:41:00;12.70;;;2.67;;
70312;SDS011;57723;51.698;5.344;2023-06-14T06:43:26;13.05;;;3.20;;
70312;SDS011;57723;51.698;5.344;2023-06-14T06:45:51;6.30;;;2.57;;
70312;SDS011;57723;51.698;5.344;2023-06-14T06:48:17;10.10;;;2.80;;
70312;SDS011;57723;51.698;5.344;2023-06-14T06:50:42;6.73;;;2.37;;
70312;SDS011;57723;51.698;5.344;2023-06-14T06:53:08;4.97;;;2.27;;
70312;SDS011;57723;51.698;5.344;2023-06-14T06:55:33;7.43;;;2.72;;
70312;SDS011;57723;51.698;5.344;2023-06-14T06:57:59;5.57;;;2.23;;
70312;SDS011;57723;51.698;5.344;2023-06-14T07:00:25;5.13;;;2.50;;
70312;SDS011;57723;51.698;5.344;2023-06-14T07:02:51;7.38;;;2.72;;
70312;SDS011;57723;51.698;5.344;2023-06-14T07:05:17;6.87;;;2.60;;
70312;SDS011;57723;51.698;5.344;2023-06-14T07:07:43;4.53;;;2.50;;
70312;SDS011;57723;51.698;5.344;2023-06-14T07:10:08;6.03;;;2.47;;
70312;SDS011;57723;51.698;5.344;2023-06-14T07:12:33;6.60;;;2.40;;
70312;SDS011;57723;51.698;5.344;2023-06-14T07:15:04;8.60;;;2.60;;
70312;SDS011;57723;51.698;5.344;2023-06-14T07:17:29;7.33;;;2.23;;
70312;SDS011;57723;51.698;5.344;2023-06-14T07:19:56;4.95;;;2.13;;
70312;SDS011;57723;51.698;5.344;2023-06-14T07:22:22;7.03;;;2.63;;
70312;SDS011;57723;51.698;5.344;2023-06-14T07:24:50;4.63;;;2.40;;
70312;SDS011;57723;51.698;5.344;2023-06-14T07:27:16;5.37;;;2.40;;
70312;SDS011;57723;51.698;5.344;2023-06-14T07:29:41;6.20;;;2.60;;
70312;SDS011;57723;51.698;5.344;2023-06-14T07:32:06;4.43;;;2.47;;
70312;SDS011;57723;51.698;5.344;2023-06-14T07:34:32;6.23;;;2.40;;
70312;SDS011;57723;51.698;5.344;2023-06-14T07:36:57;7.90;;;2.53;;
70312;SDS011;57723;51.698;5.344;2023-06-14T07:39:22;5.67;;;2.50;;
70312;SDS011;57723;51.698;5.344;2023-06-14T07:41:48;5.22;;;2.30;;
70312;SDS011;57723;51.698;5.344;2023-06-14T07:44:13;3.50;;;2.10;;
70312;SDS011;57723;51.698;5.344;2023-06-14T07:46:39;5.33;;;2.80;;
70312;SDS011;57723;51.698;5.344;2023-06-14T07:49:05;6.53;;;2.42;;
70312;SDS011;57723;51.698;5.344;2023-06-14T07:51:30;5.77;;;2.53;;
70312;SDS011;57723;51.698;5.344;2023-06-14T07:53:56;10.77;;;2.53;;
70312;SDS011;57723;51.698;5.344;2023-06-14T07:56:21;7.30;;;2.23;;
70312;SDS011;57723;51.698;5.344;2023-06-14T07:58:48;5.28;;;2.60;;
70312;SDS011;57723;51.698;5.344;2023-06-14T08:01:13;6.70;;;2.73;;
70312;SDS011;57723;51.698;5.344;2023-06-14T08:03:39;11.07;;;3.03;;
70312;SDS011;57723;51.698;5.344;2023-06-14T08:06:04;4.70;;;2.57;;
70312;SDS011;57723;51.698;5.344;2023-06-14T08:08:33;7.77;;;2.80;;
70312;SDS011;57723;51.698;5.344;2023-06-14T08:10:59;4.37;;;2.53;;
70312;SDS011;57723;51.698;5.344;2023-06-14T08:13:24;6.35;;;2.50;;
70312;SDS011;57723;51.698;5.344;2023-06-14T08:15:49;4.90;;;2.43;;
70312;SDS011;57723;51.698;5.344;2023-06-14T08:18:15;7.77;;;2.60;;
70312;SDS011;57723;51.698;5.344;2023-06-14T08:20:40;4.82;;;2.47;;
70312;SDS011;57723;51.698;5.344;2023-06-14T08:23:06;5.03;;;2.80;;
70312;SDS011;57723;51.698;5.344;2023-06-14T08:25:31;6.17;;;2.80;;
70312;SDS011;57723;51.698;5.344;2023-06-14T08:27:58;5.07;;;2.40;;
70312;SDS011;57723;51.698;5.344;2023-06-14T08:30:23;4.95;;;2.30;;
70312;SDS011;57723;51.698;5.344;2023-06-14T08:32:49;5.27;;;2.50;;
70312;SDS011;57723;51.698;5.344;2023-06-14T08:35:14;6.90;;;2.45;;
70312;SDS011;57723;51.698;5.344;2023-06-14T08:37:41;5.05;;;2.05;;
70312;SDS011;57723;51.698;5.344;2023-06-14T08:40:17;3.93;;;2.13;;
70312;SDS011;57723;51.698;5.344;2023-06-14T08:42:43;6.20;;;1.90;;
70312;SDS011;57723;51.698;5.344;2023-06-14T08:45:08;6.40;;;2.07;;
70312;SDS011;57723;51.698;5.344;2023-06-14T08:47:34;5.60;;;2.20;;
70312;SDS011;57723;51.698;5.344;2023-06-14T08:50:01;3.67;;;2.00;;
70312;SDS011;57723;51.698;5.344;2023-06-14T08:52:32;3.42;;;2.13;;
70312;SDS011;57723;51.698;5.344;2023-06-14T08:54:59;5.05;;;1.83;;
70312;SDS011;57723;51.698;5.344;2023-06-14T08:57:26;4.10;;;2.10;;
70312;SDS011;57723;51.698;5.344;2023-06-14T08:59:55;3.47;;;2.10;;
70312;SDS011;57723;51.698;5.344;2023-06-14T09:02:22;4.30;;;2.03;;
70312;SDS011;57723;51.698;5.344;2023-06-14T09:04:47;4.37;;;1.90;;
70312;SDS011;57723;51.698;5.344;2023-06-14T09:07:14;3.23;;;1.90;;
70312;SDS011;57723;51.698;5.344;2023-06-14T09:09:40;4.70;;;1.87;;
70312;SDS011;57723;51.698;5.344;2023-06-14T09:12:15;5.85;;;2.10;;
70312;SDS011;57723;51.698;5.344;2023-06-14T09:14:40;9.15;;;2.30;;
70312;SDS011;57723;51.698;5.344;2023-06-14T09:17:07;10.30;;;2.05;;
70312;SDS011;57723;51.698;5.344;2023-06-14T09:19:33;9.93;;;2.53;;
70312;SDS011;57723;51.698;5.344;2023-06-14T09:21:59;8.38;;;1.80;;
70312;SDS011;57723;51.698;5.344;2023-06-14T09:24:24;7.13;;;2.20;;
70312;SDS011;57723;51.698;5.344;2023-06-14T09:26:53;6.10;;;1.80;;
70312;SDS011;57723;51.698;5.344;2023-06-14T09:29:18;4.38;;;2.00;;
70312;SDS011;57723;51.698;5.344;2023-06-14T09:31:46;5.73;;;1.70;;
70312;SDS011;57723;51.698;5.344;2023-06-14T09:34:11;7.13;;;2.60;;
70312;SDS011;57723;51.698;5.344;2023-06-14T09:36:37;6.73;;;2.10;;
70312;SDS011;57723;51.698;5.344;2023-06-14T09:39:05;5.80;;;1.73;;
70312;SDS011;57723;51.698;5.344;2023-06-14T09:41:31;3.10;;;1.55;;
70312;SDS011;57723;51.698;5.344;2023-06-14T09:43:59;4.60;;;1.60;;
70312;SDS011;57723;51.698;5.344;2023-06-14T09:46:26;3.38;;;1.60;;
70312;SDS011;57723;51.698;5.344;2023-06-14T09:48:52;2.25;;;1.35;;
70312;SDS011;57723;51.698;5.344;2023-06-14T09:51:17;3.87;;;1.67;;
70312;SDS011;57723;51.698;5.344;2023-06-14T09:53:45;2.70;;;1.50;;
70312;SDS011;57723;51.698;5.344;2023-06-14T09:56:12;4.68;;;1.50;;
70312;SDS011;57723;51.698;5.344;2023-06-14T09:58:39;3.23;;;1.47;;
70312;SDS011;57723;51.698;5.344;2023-06-14T10:01:05;5.70;;;1.42;;
70312;SDS011;57723;51.698;5.344;2023-06-14T10:03:32;3.20;;;1.40;;
70312;SDS011;57723;51.698;5.344;2023-06-14T10:05:58;3.27;;;1.30;;
70312;SDS011;57723;51.698;5.344;2023-06-14T10:08:27;3.75;;;1.13;;
70312;SDS011;57723;51.698;5.344;2023-06-14T10:10:53;6.68;;;2.53;;
70312;SDS011;57723;51.698;5.344;2023-06-14T10:13:18;2.00;;;1.10;;
70312;SDS011;57723;51.698;5.344;2023-06-14T10:19:11;7.78;;;1.30;;
70312;SDS011;57723;51.698;5.344;2023-06-14T10:24:01;4.63;;;1.77;;
70312;SDS011;57723;51.698;5.344;2023-06-14T10:26:28;2.95;;;1.23;;
70312;SDS011;57723;51.698;5.344;2023-06-14T10:28:58;1.87;;;1.30;;
70312;SDS011;57723;51.698;5.344;2023-06-14T10:31:39;4.05;;;1.27;;
70312;SDS011;57723;51.698;5.344;2023-06-14T10:34:05;2.75;;;1.30;;
70312;SDS011;57723;51.698;5.344;2023-06-14T10:36:30;3.80;;;1.30;;
70312;SDS011;57723;51.698;5.344;2023-06-14T10:38:57;2.03;;;1.20;;
70312;SDS011;57723;51.698;5.344;2023-06-14T10:41:22;3.15;;;1.30;;
70312;SDS011;57723;51.698;5.344;2023-06-14T10:43:48;5.30;;;1.50;;
70312;SDS011;57723;51.698;5.344;2023-06-14T10:46:17;3.17;;;1.50;;
70312;SDS011;57723;51.698;5.344;2023-06-14T10:48:43;4.70;;;1.33;;
70312;SDS011;57723;51.698;5.344;2023-06-14T10:51:16;3.10;;;1.35;;
70312;SDS011;57723;51.698;5.344;2023-06-14T10:53:45;3.08;;;1.40;;
70312;SDS011;57723;51.698;5.344;2023-06-14T10:56:22;2.53;;;1.30;;
70312;SDS011;57723;51.698;5.344;2023-06-14T10:58:52;3.65;;;1.40;;
70312;SDS011;57723;51.698;5.344;2023-06-14T11:01:29;2.90;;;1.60;;
70312;SDS011;57723;51.698;5.344;2023-06-14T11:03:57;2.05;;;1.30;;
70312;SDS011;57723;51.698;5.344;2023-06-14T11:06:30;2.35;;;1.30;;
70312;SDS011;57723;51.698;5.344;2023-06-14T11:09:09;2.07;;;1.30;;
70312;SDS011;57723;51.698;5.344;2023-06-14T11:11:36;2.22;;;1.30;;
70312;SDS011;57723;51.698;5.344;2023-06-14T11:14:03;2.67;;;1.40;;
70312;SDS011;57723;51.698;5.344;2023-06-14T11:16:32;3.47;;;2.33;;
70312;SDS011;57723;51.698;5.344;2023-06-14T11:18:59;3.33;;;1.33;;
70312;SDS011;57723;51.698;5.344;2023-06-14T11:21:25;2.17;;;1.30;;
70312;SDS011;57723;51.698;5.344;2023-06-14T11:23:56;5.43;;;1.40;;
70312;SDS011;57723;51.698;5.344;2023-06-14T11:26:28;6.57;;;1.35;;
70312;SDS011;57723;51.698;5.344;2023-06-14T11:28:57;2.70;;;1.40;;
70312;SDS011;57723;51.698;5.344;2023-06-14T11:31:23;2.63;;;1.37;;
70312;SDS011;57723;51.698;5.344;2023-06-14T11:33:53;4.15;;;1.50;;
70312;SDS011;57723;51.698;5.344;2023-06-14T11:36:18;3.67;;;1.30;;
70312;SDS011;57723;51.698;5.344;2023-06-14T11:38:43;3.10;;;1.50;;
70312;SDS011;57723;51.698;5.344;2023-06-14T11:41:09;2.47;;;1.20;;
70312;SDS011;57723;51.698;5.344;2023-06-14T11:43:34;5.67;;;1.20;;
70312;SDS011;57723;51.698;5.344;2023-06-14T11:46:00;2.42;;;1.35;;
70312;SDS011;57723;51.698;5.344;2023-06-14T11:48:36;3.08;;;1.30;;
70312;SDS011;57723;51.698;5.344;2023-06-14T11:51:02;3.60;;;1.40;;
70312;SDS011;57723;51.698;5.344;2023-06-14T11:53:27;3.80;;;1.30;;
70312;SDS011;57723;51.698;5.344;2023-06-14T11:55:52;1.98;;;1.15;;
70312;SDS011;57723;51.698;5.344;2023-06-14T11:58:18;3.20;;;1.47;;
70312;SDS011;57723;51.698;5.344;2023-06-14T12:00:43;4.53;;;1.17;;
70312;SDS011;57723;51.698;5.344;2023-06-14T12:03:09;2.77;;;1.30;;
70312;SDS011;57723;51.698;5.344;2023-06-14T12:05:34;3.00;;;1.42;;
70312;SDS011;57723;51.698;5.344;2023-06-14T12:08:01;6.33;;;1.37;;
70312;SDS011;57723;51.698;5.344;2023-06-14T12:10:27;2.85;;;1.30;;
70312;SDS011;57723;51.698;5.344;2023-06-14T12:12:56;2.78;;;1.40;;
70312;SDS011;57723;51.698;5.344;2023-06-14T12:15:22;2.15;;;1.10;;
70312;SDS011;57723;51.698;5.344;2023-06-14T12:17:47;2.53;;;1.30;;
70312;SDS011;57723;51.698;5.344;2023-06-14T12:20:12;3.70;;;1.20;;
70312;SDS011;57723;51.698;5.344;2023-06-14T12:22:56;2.67;;;1.33;;
70312;SDS011;57723;51.698;5.344;2023-06-14T12:25:32;4.10;;;1.50;;
70312;SDS011;57723;51.698;5.344;2023-06-14T12:27:59;2.23;;;1.40;;
70312;SDS011;57723;51.698;5.344;2023-06-14T12:30:29;3.75;;;1.45;;
70312;SDS011;57723;51.698;5.344;2023-06-14T12:32:55;3.03;;;1.40;;
70312;SDS011;57723;51.698;5.344;2023-06-14T12:35:20;5.27;;;1.40;;
70312;SDS011;57723;51.698;5.344;2023-06-14T12:37:46;7.45;;;1.50;;
70312;SDS011;57723;51.698;5.344;2023-06-14T12:40:11;4.03;;;1.40;;
70312;SDS011;57723;51.698;5.344;2023-06-14T12:42:37;3.10;;;1.30;;
70312;SDS011;57723;51.698;5.344;2023-06-14T12:45:02;2.60;;;1.40;;
70312;SDS011;57723;51.698;5.344;2023-06-14T12:47:28;6.47;;;1.55;;
70312;SDS011;57723;51.698;5.344;2023-06-14T12:49:53;2.27;;;1.40;;
70312;SDS011;57723;51.698;5.344;2023-06-14T12:52:18;2.50;;;1.40;;
70312;SDS011;57723;51.698;5.344;2023-06-14T12:54:44;3.10;;;1.20;;
70312;SDS011;57723;51.698;5.344;2023-06-14T12:57:09;2.75;;;1.20;;
70312;SDS011;57723;51.698;5.344;2023-06-14T12:59:35;2.57;;;1.10;;
70312;SDS011;57723;51.698;5.344;2023-06-14T13:02:16;6.23;;;1.60;;
70312;SDS011;57723;51.698;5.344;2023-06-14T13:04:42;3.05;;;1.58;;
70312;SDS011;57723;51.698;5.344;2023-06-14T13:07:07;7.60;;;1.50;;
70312;SDS011;57723;51.698;5.344;2023-06-14T13:09:32;3.43;;;1.43;;
70312;SDS011;57723;51.698;5.344;2023-06-14T13:11:58;3.53;;;1.13;;
70312;SDS011;57723;51.698;5.344;2023-06-14T13:14:24;2.70;;;1.50;;
70312;SDS011;57723;51.698;5.344;2023-06-14T13:16:49;5.57;;;1.40;;
70312;SDS011;57723;51.698;5.344;2023-06-14T13:19:15;2.00;;;1.20;;
70312;SDS011;57723;51.698;5.344;2023-06-14T13:21:40;2.27;;;1.20;;
70312;SDS011;57723;51.698;5.344;2023-06-14T13:24:05;4.77;;;1.30;;
70312;SDS011;57723;51.698;5.344;2023-06-14T13:26:32;3.83;;;1.20;;
70312;SDS011;57723;51.698;5.344;2023-06-14T13:28:57;3.20;;;1.63;;
70312;SDS011;57723;51.698;5.344;2023-06-14T13:31:23;2.33;;;1.30;;
70312;SDS011;57723;51.698;5.344;2023-06-14T13:33:48;3.03;;;1.20;;
70312;SDS011;57723;51.698;5.344;2023-06-14T13:36:13;3.30;;;1.30;;
70312;SDS011;57723;51.698;5.344;2023-06-14T13:38:39;3.17;;;1.30;;
70312;SDS011;57723;51.698;5.344;2023-06-14T13:41:04;4.33;;;1.20;;
70312;SDS011;57723;51.698;5.344;2023-06-14T13:43:30;3.27;;;1.07;;
70312;SDS011;57723;51.698;5.344;2023-06-14T13:45:55;2.20;;;1.30;;
70312;SDS011;57723;51.698;5.344;2023-06-14T13:48:21;2.78;;;1.17;;
70312;SDS011;57723;51.698;5.344;2023-06-14T13:50:46;5.13;;;1.43;;
70312;SDS011;57723;51.698;5.344;2023-06-14T13:53:12;1.77;;;1.13;;
70312;SDS011;57723;51.698;5.344;2023-06-14T13:55:39;3.65;;;1.30;;
70312;SDS011;57723;51.698;5.344;2023-06-14T13:58:04;2.77;;;1.10;;
70312;SDS011;57723;51.698;5.344;2023-06-14T14:00:29;4.67;;;1.40;;
70312;SDS011;57723;51.698;5.344;2023-06-14T14:02:54;3.87;;;1.30;;
70312;SDS011;57723;51.698;5.344;2023-06-14T14:05:22;4.20;;;1.40;;
70312;SDS011;57723;51.698;5.344;2023-06-14T14:07:51;3.13;;;1.33;;
70312;SDS011;57723;51.698;5.344;2023-06-14T14:10:17;3.10;;;1.40;;
70312;SDS011;57723;51.698;5.344;2023-06-14T14:12:44;2.85;;;1.17;;
70312;SDS011;57723;51.698;5.344;2023-06-14T14:15:10;2.90;;;1.35;;
70312;SDS011;57723;51.698;5.344;2023-06-14T14:17:38;2.40;;;1.30;;
70312;SDS011;57723;51.698;5.344;2023-06-14T14:20:03;2.70;;;1.00;;
70312;SDS011;57723;51.698;5.344;2023-06-14T14:22:29;2.75;;;1.20;;
70312;SDS011;57723;51.698;5.344;2023-06-14T14:24:54;1.70;;;1.10;;
70312;SDS011;57723;51.698;5.344;2023-06-14T14:27:20;3.60;;;1.10;;
70312;SDS011;57723;51.698;5.344;2023-06-14T14:29:45;2.53;;;1.13;;
70312;SDS011;57723;51.698;5.344;2023-06-14T14:32:10;3.57;;;1.30;;
70312;SDS011;57723;51.698;5.344;2023-06-14T14:34:39;1.92;;;1.15;;
70312;SDS011;57723;51.698;5.344;2023-06-14T14:37:04;2.60;;;1.53;;
70312;SDS011;57723;51.698;5.344;2023-06-14T14:39:29;2.47;;;1.30;;
70312;SDS011;57723;51.698;5.344;2023-06-14T14:41:55;3.03;;;1.30;;
70312;SDS011;57723;51.698;5.344;2023-06-14T14:44:21;3.27;;;1.30;;
70312;SDS011;57723;51.698;5.344;2023-06-14T14:46:46;2.90;;;1.10;;
70312;SDS011;57723;51.698;5.344;2023-06-14T14:49:11;2.73;;;1.17;;
70312;SDS011;57723;51.698;5.344;2023-06-14T14:51:37;3.08;;;1.20;;